Time;durP1;ratioP1;P1;durP2;ratioP2;P2;SDS_P1;SDS_P2;PMS_P1;PMS_P2;Temp;Humidity;BMP_temperature;BMP_pressure;BME280_temperature;BME280_humidity;BME280_pressure;Samples;Min_cycle;Max_cycle;Signal;HPM_P1;HPM_P2
2022/11/11 00:00:30;;;;;;;0.70;0.70;;;;;;;;;;5053784;28;20907;-76
2022/11/11 00:03:17;;;;;;;0.70;0.60;;;;;;;;;;5056085;28;20426;-74
2022/11/11 00:06:11;;;;;;;0.70;0.60;;;;;;;;;;5077106;28;20555;-76
2022/11/11 00:08:56;;;;;;;0.63;0.60;;;;;;;;;;5077640;28;20474;-76
2022/11/11 00:11:42;;;;;;;1.17;1.00;;;;;;;;;;5067661;28;20816;-77
2022/11/11 00:14:28;;;;;;;0.70;0.67;;;;;;;;;;5056677;28;20430;-77
2022/11/11 00:26:33;;;;;;;0.70;0.60;;;;;;;;;;5067716;28;20435;-76
2022/11/11 00:29:25;;;;;;;0.60;0.60;;;;;;;;;;5060708;28;20429;-75
2022/11/11 00:32:22;;;;;;;0.70;0.60;;;;;;;;;;5060826;28;20468;-75
2022/11/11 00:41:19;;;;;;;0.70;0.60;;;;;;;;;;5065219;28;20497;-76
2022/11/11 00:44:05;;;;;;;0.70;0.60;;;;;;;;;;5070404;28;20974;-74
2022/11/11 00:53:02;;;;;;;0.70;0.60;;;;;;;;;;5077421;28;20513;-77
2022/11/11 00:55:49;;;;;;;0.80;0.77;;;;;;;;;;5060367;28;20943;-78
2022/11/11 00:58:35;;;;;;;0.60;0.60;;;;;;;;;;5069697;28;20427;-78
2022/11/11 01:01:20;;;;;;;0.70;0.60;;;;;;;;;;5068726;28;20980;-77
2022/11/11 01:04:06;;;;;;;0.60;0.60;;;;;;;;;;5059024;28;20452;-77
2022/11/11 01:06:52;;;;;;;0.70;0.70;;;;;;;;;;5058686;28;20478;-74
2022/11/11 01:09:38;;;;;;;0.70;0.63;;;;;;;;;;5060017;28;20562;-75
2022/11/11 01:12:25;;;;;;;0.70;0.70;;;;;;;;;;5060909;28;20451;-74
2022/11/11 01:15:10;;;;;;;2.70;2.50;;;;;;;;;;5066959;28;20431;-76
2022/11/11 01:17:55;;;;;;;0.70;0.60;;;;;;;;;;5059171;28;20427;-77
2022/11/11 01:20:41;;;;;;;0.70;0.60;;;;;;;;;;5063759;28;20442;-76
2022/11/11 01:23:27;;;;;;;0.80;0.80;;;;;;;;;;5057785;28;20421;-75
2022/11/11 01:26:14;;;;;;;0.70;0.60;;;;;;;;;;5063232;28;20416;-76
2022/11/11 01:29:02;;;;;;;0.70;0.60;;;;;;;;;;5060181;28;20411;-76
2022/11/11 01:31:47;;;;;;;0.70;0.60;;;;;;;;;;5057329;28;20469;-78
2022/11/11 01:34:33;;;;;;;0.80;0.80;;;;;;;;;;5053535;28;20492;-75
2022/11/11 01:37:19;;;;;;;0.70;0.60;;;;;;;;;;5056859;28;20928;-75
2022/11/11 01:40:06;;;;;;;0.70;0.60;;;;;;;;;;5054403;28;20782;-75
2022/11/11 01:42:53;;;;;;;0.70;0.63;;;;;;;;;;5055558;28;20937;-75
2022/11/11 01:45:50;;;;;;;0.70;0.70;;;;;;;;;;5069541;28;20498;-76
2022/11/11 01:51:46;;;;;;;0.70;0.60;;;;;;;;;;5059164;28;20466;-75
2022/11/11 01:54:34;;;;;;;0.70;0.60;;;;;;;;;;5055690;28;20504;-74
2022/11/11 01:57:24;;;;;;;0.70;0.60;;;;;;;;;;5055210;28;20813;-76
2022/11/11 02:00:11;;;;;;;0.67;0.60;;;;;;;;;;5049869;28;20423;-76
2022/11/11 02:02:59;;;;;;;0.93;0.93;;;;;;;;;;5046791;28;20416;-76
2022/11/11 02:05:47;;;;;;;0.70;0.70;;;;;;;;;;5052763;28;20763;-77
2022/11/11 02:08:38;;;;;;;3.50;2.03;;;;;;;;;;5058236;28;20973;-77
2022/11/11 02:14:41;;;;;;;0.70;0.60;;;;;;;;;;5068493;28;20577;-74
2022/11/11 02:17:29;;;;;;;0.73;0.70;;;;;;;;;;5053382;28;20504;-75
2022/11/11 02:20:24;;;;;;;0.70;0.70;;;;;;;;;;5054832;28;20509;-75
2022/11/11 02:23:14;;;;;;;0.70;0.60;;;;;;;;;;5057562;28;20435;-76
2022/11/11 02:26:04;;;;;;;2.50;0.97;;;;;;;;;;5050430;28;20567;-77
2022/11/11 02:28:54;;;;;;;1.67;1.57;;;;;;;;;;5043446;28;20781;-77
2022/11/11 02:31:49;;;;;;;0.70;0.60;;;;;;;;;;5059746;28;20433;-75
2022/11/11 02:34:39;;;;;;;0.60;0.60;;;;;;;;;;5056557;28;20522;-76
2022/11/11 02:37:26;;;;;;;0.70;0.70;;;;;;;;;;5065317;28;21063;-75
2022/11/11 02:40:20;;;;;;;0.90;0.90;;;;;;;;;;5058718;28;20422;-74
2022/11/11 02:43:09;;;;;;;0.60;0.60;;;;;;;;;;5055752;28;21071;-75
2022/11/11 02:45:57;;;;;;;1.43;1.33;;;;;;;;;;5053047;28;20971;-75
2022/11/11 02:48:45;;;;;;;0.70;0.70;;;;;;;;;;5069406;28;20536;-74
2022/11/11 02:51:32;;;;;;;0.73;0.73;;;;;;;;;;5049253;28;20448;-76
2022/11/11 02:54:18;;;;;;;0.70;0.60;;;;;;;;;;5048664;28;20489;-75
2022/11/11 02:57:08;;;;;;;0.80;0.80;;;;;;;;;;5065500;28;20427;-75
2022/11/11 03:00:05;;;;;;;0.70;0.70;;;;;;;;;;5055871;28;20441;-77
2022/11/11 03:02:55;;;;;;;0.60;0.60;;;;;;;;;;5061886;28;20416;-77
2022/11/11 03:05:44;;;;;;;2.20;2.10;;;;;;;;;;5057112;28;20470;-78
2022/11/11 03:08:34;;;;;;;0.70;0.70;;;;;;;;;;5051939;28;20464;-76
2022/11/11 03:11:28;;;;;;;0.70;0.60;;;;;;;;;;5039305;28;20503;-75
2022/11/11 03:14:23;;;;;;;1.63;1.03;;;;;;;;;;5057441;28;20465;-76
2022/11/11 03:21:05;;;;;;;0.70;0.70;;;;;;;;;;5061013;28;20465;-75
2022/11/11 03:24:15;;;;;;;4.50;2.80;;;;;;;;;;5057982;28;20459;-75
2022/11/11 03:27:04;;;;;;;0.70;0.60;;;;;;;;;;5061063;28;20434;-75
2022/11/11 03:29:53;;;;;;;0.60;0.60;;;;;;;;;;5060116;28;20415;-76
2022/11/11 03:32:42;;;;;;;0.70;0.70;;;;;;;;;;5054239;28;20605;-76
2022/11/11 03:35:31;;;;;;;0.60;0.60;;;;;;;;;;5043330;28;20557;-75
2022/11/11 03:38:25;;;;;;;0.67;0.67;;;;;;;;;;5049070;28;20478;-77
2022/11/11 03:41:13;;;;;;;0.70;0.70;;;;;;;;;;5063235;28;20420;-76
2022/11/11 03:44:07;;;;;;;0.70;0.60;;;;;;;;;;5063592;28;20490;-74
2022/11/11 03:46:54;;;;;;;0.70;0.70;;;;;;;;;;5052171;28;20433;-75
2022/11/11 03:49:41;;;;;;;0.70;0.70;;;;;;;;;;5067241;28;20461;-74
2022/11/11 03:52:26;;;;;;;0.63;0.63;;;;;;;;;;5066262;28;20456;-74
2022/11/11 03:55:12;;;;;;;0.90;0.90;;;;;;;;;;5060483;28;20531;-74
2022/11/11 03:57:58;;;;;;;1.07;0.83;;;;;;;;;;5055949;28;20421;-75
2022/11/11 04:00:44;;;;;;;0.70;0.60;;;;;;;;;;5054584;28;20427;-76
2022/11/11 04:16:06;;;;;;;1.63;1.10;;;;;;;;;;5071532;28;20415;-75
2022/11/11 04:21:58;;;;;;;0.60;0.60;;;;;;;;;;5066386;28;20457;-75
2022/11/11 04:29:27;;;;;;;0.60;0.60;;;;;;;;;;5061806;28;20788;-75
2022/11/11 04:30:52;;;;;;;0.60;0.60;;;;;;;;;;5067996;28;20965;-76
2022/11/11 04:33:38;;;;;;;0.60;0.60;;;;;;;;;;5053247;28;20500;-75
2022/11/11 04:36:24;;;;;;;0.60;0.60;;;;;;;;;;5053412;28;20458;-76
2022/11/11 04:42:15;;;;;;;0.60;0.60;;;;;;;;;;5062454;28;20426;-75
2022/11/11 04:48:06;;;;;;;0.70;0.70;;;;;;;;;;5063167;28;20443;-75
2022/11/11 04:50:52;;;;;;;0.60;0.50;;;;;;;;;;5060566;28;20509;-76
2022/11/11 04:53:37;;;;;;;0.60;0.60;;;;;;;;;;5049895;28;20460;-74
2022/11/11 04:59:28;;;;;;;0.63;0.60;;;;;;;;;;5056587;28;20425;-76
2022/11/11 05:05:18;;;;;;;0.60;0.60;;;;;;;;;;5066278;28;20445;-74
2022/11/11 05:11:07;;;;;;;0.70;0.70;;;;;;;;;;5062696;28;20426;-76
2022/11/11 05:23:09;;;;;;;0.60;0.60;;;;;;;;;;5071264;28;20423;-75
2022/11/11 05:25:54;;;;;;;0.60;0.60;;;;;;;;;;5069662;28;20418;-78
2022/11/11 05:28:39;;;;;;;0.60;0.60;;;;;;;;;;5071435;28;20431;-74
2022/11/11 05:31:26;;;;;;;0.70;0.60;;;;;;;;;;5067595;28;20415;-75
2022/11/11 05:34:11;;;;;;;0.60;0.60;;;;;;;;;;5049327;28;20460;-76
2022/11/11 05:36:56;;;;;;;0.80;0.80;;;;;;;;;;5066344;28;20958;-75
2022/11/11 05:39:41;;;;;;;0.70;0.70;;;;;;;;;;5058410;28;20417;-75
2022/11/11 05:42:27;;;;;;;0.70;0.70;;;;;;;;;;5059794;28;20443;-74
2022/11/11 05:45:12;;;;;;;0.70;0.70;;;;;;;;;;5059814;28;20887;-76
2022/11/11 05:48:01;;;;;;;2.30;1.97;;;;;;;;;;5064811;28;20512;-75
2022/11/11 05:50:46;;;;;;;2.40;2.20;;;;;;;;;;5054708;28;20782;-75
2022/11/11 05:53:32;;;;;;;1.53;1.43;;;;;;;;;;5065407;28;20460;-75
2022/11/11 05:56:18;;;;;;;0.60;0.60;;;;;;;;;;5057434;28;20414;-75
2022/11/11 05:59:06;;;;;;;0.70;0.60;;;;;;;;;;5052732;28;20452;-76
2022/11/11 06:01:53;;;;;;;0.60;0.60;;;;;;;;;;5064818;28;20424;-79
2022/11/11 06:04:40;;;;;;;0.70;0.70;;;;;;;;;;5055567;28;20500;-74
2022/11/11 06:07:25;;;;;;;1.43;1.17;;;;;;;;;;5063512;28;20572;-75
2022/11/11 06:13:14;;;;;;;1.00;1.00;;;;;;;;;;5062601;28;20544;-75
2022/11/11 06:16:01;;;;;;;0.60;0.60;;;;;;;;;;5054693;28;20442;-74
2022/11/11 06:18:46;;;;;;;0.60;0.60;;;;;;;;;;5055113;28;20891;-77
2022/11/11 06:21:55;;;;;;;0.70;0.70;;;;;;;;;;5054550;28;21002;-75
2022/11/11 06:24:38;;;;;;;0.60;0.60;;;;;;;;;;5062886;28;20564;-75
2022/11/11 06:27:23;;;;;;;0.60;0.60;;;;;;;;;;5061239;28;20453;-76
2022/11/11 06:30:13;;;;;;;0.60;0.60;;;;;;;;;;5053577;28;20458;-77
2022/11/11 06:33:23;;;;;;;0.60;0.60;;;;;;;;;;5058727;28;20490;-76
2022/11/11 06:36:10;;;;;;;0.73;0.73;;;;;;;;;;5053257;28;20455;-74
2022/11/11 06:38:57;;;;;;;0.70;0.60;;;;;;;;;;5071172;28;20414;-75
2022/11/11 06:41:42;;;;;;;0.60;0.60;;;;;;;;;;5039229;28;20799;-76
2022/11/11 06:44:28;;;;;;;0.60;0.60;;;;;;;;;;5043161;28;20438;-77
2022/11/11 06:47:14;;;;;;;0.70;0.70;;;;;;;;;;5055558;28;20483;-76
2022/11/11 06:50:01;;;;;;;0.60;0.60;;;;;;;;;;5065890;28;20425;-75
2022/11/11 06:52:47;;;;;;;0.60;0.60;;;;;;;;;;5056096;28;20426;-75
2022/11/11 06:55:34;;;;;;;0.60;0.60;;;;;;;;;;5071614;28;20481;-76
2022/11/11 06:58:19;;;;;;;0.60;0.60;;;;;;;;;;5071723;28;20495;-75
2022/11/11 07:01:08;;;;;;;0.60;0.60;;;;;;;;;;5061151;28;20425;-76
2022/11/11 07:03:53;;;;;;;1.53;1.43;;;;;;;;;;5063402;28;20510;-76
2022/11/11 07:06:39;;;;;;;0.70;0.70;;;;;;;;;;5067151;28;20459;-77
2022/11/11 07:09:26;;;;;;;0.60;0.60;;;;;;;;;;5057292;28;20435;-75
2022/11/11 07:12:14;;;;;;;0.67;0.67;;;;;;;;;;5057851;28;20437;-75
2022/11/11 07:14:59;;;;;;;0.60;0.60;;;;;;;;;;5060610;28;20458;-75
2022/11/11 07:17:45;;;;;;;0.93;0.93;;;;;;;;;;5055982;28;20761;-75
2022/11/11 07:20:31;;;;;;;0.60;0.60;;;;;;;;;;5064386;28;20827;-76
2022/11/11 07:23:16;;;;;;;0.60;0.60;;;;;;;;;;5045418;28;20435;-75
2022/11/11 07:26:02;;;;;;;0.60;0.60;;;;;;;;;;5046632;28;20421;-74
2022/11/11 07:28:50;;;;;;;0.70;0.70;;;;;;;;;;5051276;28;20420;-75
2022/11/11 07:31:35;;;;;;;0.70;0.70;;;;;;;;;;5065233;28;20434;-74
2022/11/11 07:34:21;;;;;;;2.33;2.23;;;;;;;;;;5062190;28;21039;-76
2022/11/11 07:37:07;;;;;;;0.70;0.60;;;;;;;;;;5053227;28;20455;-75
2022/11/11 07:39:54;;;;;;;0.73;0.73;;;;;;;;;;5054216;28;20426;-75
2022/11/11 07:42:41;;;;;;;3.27;1.73;;;;;;;;;;5050883;28;20932;-75
2022/11/11 07:45:27;;;;;;;0.60;0.60;;;;;;;;;;5058743;28;20435;-77
2022/11/11 07:48:13;;;;;;;0.60;0.60;;;;;;;;;;5065574;28;20554;-78
2022/11/11 07:50:59;;;;;;;0.60;0.60;;;;;;;;;;5056282;28;20497;-76
2022/11/11 07:53:45;;;;;;;1.73;1.63;;;;;;;;;;5052097;28;20942;-75
2022/11/11 07:56:31;;;;;;;0.60;0.60;;;;;;;;;;5056940;28;20957;-76
2022/11/11 07:59:17;;;;;;;0.80;0.80;;;;;;;;;;5054768;28;20439;-76
2022/11/11 08:02:03;;;;;;;0.60;0.60;;;;;;;;;;5055227;28;20438;-76
2022/11/11 08:04:49;;;;;;;0.60;0.60;;;;;;;;;;5061943;28;21063;-76
2022/11/11 08:07:41;;;;;;;0.60;0.60;;;;;;;;;;5060662;28;20431;-76
2022/11/11 08:10:27;;;;;;;0.60;0.60;;;;;;;;;;5052559;28;20770;-76
2022/11/11 08:16:16;;;;;;;0.60;0.60;;;;;;;;;;5062567;28;20765;-76
2022/11/11 08:19:03;;;;;;;0.70;0.70;;;;;;;;;;5058419;28;20428;-77
2022/11/11 08:21:50;;;;;;;0.87;0.87;;;;;;;;;;5067580;28;20452;-77
2022/11/11 08:24:36;;;;;;;0.80;0.80;;;;;;;;;;5056016;28;21038;-76
2022/11/11 08:27:41;;;;;;;0.60;0.60;;;;;;;;;;5059295;28;20461;-77
2022/11/11 08:30:26;;;;;;;0.60;0.60;;;;;;;;;;5068342;28;20431;-76
2022/11/11 08:33:12;;;;;;;0.60;0.60;;;;;;;;;;5068672;28;20451;-76
2022/11/11 08:36:19;;;;;;;0.60;0.60;;;;;;;;;;5070817;28;20506;-74
2022/11/11 08:39:06;;;;;;;1.67;1.57;;;;;;;;;;5056273;28;20515;-79
2022/11/11 08:41:51;;;;;;;0.60;0.50;;;;;;;;;;5053739;28;20422;-77
2022/11/11 08:44:37;;;;;;;0.60;0.60;;;;;;;;;;5059382;28;20874;-76
2022/11/11 08:47:23;;;;;;;0.70;0.70;;;;;;;;;;5056407;28;20425;-75
2022/11/11 08:50:09;;;;;;;0.80;0.80;;;;;;;;;;5056208;28;20432;-76
2022/11/11 08:52:56;;;;;;;0.67;0.60;;;;;;;;;;5059015;28;20414;-78
2022/11/11 08:55:42;;;;;;;0.70;0.70;;;;;;;;;;5069072;28;20822;-77
2022/11/11 08:58:27;;;;;;;0.67;0.60;;;;;;;;;;5056762;28;20472;-78
2022/11/11 09:01:14;;;;;;;0.70;0.60;;;;;;;;;;5067491;28;20416;-80
2022/11/11 09:03:59;;;;;;;0.70;0.70;;;;;;;;;;5060309;28;20527;-79
2022/11/11 09:07:06;;;;;;;0.67;0.60;;;;;;;;;;5052323;28;20460;-81
2022/11/11 09:09:56;;;;;;;0.70;0.60;;;;;;;;;;5050786;28;20523;-79
2022/11/11 09:12:42;;;;;;;0.70;0.60;;;;;;;;;;5057833;28;20448;-78
2022/11/11 09:15:27;;;;;;;0.70;0.60;;;;;;;;;;5052621;28;20457;-78
2022/11/11 09:18:13;;;;;;;0.70;0.70;;;;;;;;;;5062219;28;20452;-78
2022/11/11 09:21:00;;;;;;;0.70;0.60;;;;;;;;;;5052808;28;20465;-79
2022/11/11 09:23:46;;;;;;;0.70;0.70;;;;;;;;;;5055400;28;20496;-80
2022/11/11 09:26:33;;;;;;;1.00;0.90;;;;;;;;;;5060080;28;20576;-80
2022/11/11 09:29:19;;;;;;;0.70;0.70;;;;;;;;;;5063876;28;20439;-79
2022/11/11 09:32:05;;;;;;;0.70;0.70;;;;;;;;;;5059266;28;20503;-80
2022/11/11 09:34:50;;;;;;;0.70;0.60;;;;;;;;;;5066211;28;20449;-78
2022/11/11 09:37:36;;;;;;;0.70;0.60;;;;;;;;;;5056610;28;20548;-78
2022/11/11 09:40:22;;;;;;;0.70;0.70;;;;;;;;;;5064039;28;20560;-77
2022/11/11 09:43:15;;;;;;;0.80;0.80;;;;;;;;;;5054677;28;20521;-78
2022/11/11 09:46:16;;;;;;;0.80;0.80;;;;;;;;;;5055816;28;20470;-77
2022/11/11 09:49:07;;;;;;;0.70;0.70;;;;;;;;;;5057808;28;20445;-79
2022/11/11 09:51:55;;;;;;;0.70;0.70;;;;;;;;;;5067669;28;20468;-79
2022/11/11 09:54:43;;;;;;;0.80;0.80;;;;;;;;;;5058667;28;20488;-78
2022/11/11 09:57:33;;;;;;;1.33;1.27;;;;;;;;;;5054682;28;20453;-81
2022/11/11 10:00:21;;;;;;;0.70;0.70;;;;;;;;;;5052502;28;20513;-78
2022/11/11 10:03:18;;;;;;;0.80;0.80;;;;;;;;;;5057774;28;20426;-80
2022/11/11 10:06:06;;;;;;;0.70;0.70;;;;;;;;;;5071341;28;20557;-78
2022/11/11 10:08:55;;;;;;;0.70;0.70;;;;;;;;;;5062937;28;20419;-76
2022/11/11 10:11:46;;;;;;;0.90;0.90;;;;;;;;;;5070971;28;20522;-77
2022/11/11 10:14:33;;;;;;;0.80;0.80;;;;;;;;;;5065787;28;20612;-80
2022/11/11 10:17:26;;;;;;;0.70;0.60;;;;;;;;;;5062709;28;20832;-81
2022/11/11 10:20:15;;;;;;;0.70;0.70;;;;;;;;;;5059190;28;20417;-78
2022/11/11 10:23:02;;;;;;;0.80;0.80;;;;;;;;;;5065930;28;20456;-81
2022/11/11 10:25:50;;;;;;;0.80;0.80;;;;;;;;;;5052636;28;20431;-81
2022/11/11 10:28:36;;;;;;;0.80;0.80;;;;;;;;;;5056622;28;20812;-82
2022/11/11 10:31:22;;;;;;;0.70;0.70;;;;;;;;;;5066176;28;20474;-79
2022/11/11 10:34:10;;;;;;;1.20;1.10;;;;;;;;;;5059612;28;20560;-79
2022/11/11 10:36:56;;;;;;;0.70;0.70;;;;;;;;;;5055659;28;20507;-79
2022/11/11 10:39:47;;;;;;;0.80;0.80;;;;;;;;;;5057836;28;20785;-79
2022/11/11 10:42:32;;;;;;;0.70;0.70;;;;;;;;;;5039331;28;20474;-80
2022/11/11 10:45:22;;;;;;;0.70;0.70;;;;;;;;;;5054397;28;20418;-79
2022/11/11 10:48:09;;;;;;;1.53;1.43;;;;;;;;;;5045138;28;20483;-79
2022/11/11 10:50:56;;;;;;;0.80;0.73;;;;;;;;;;5062575;28;20473;-78
2022/11/11 10:53:42;;;;;;;0.70;0.70;;;;;;;;;;5066126;28;20426;-79
2022/11/11 10:56:33;;;;;;;1.20;1.10;;;;;;;;;;5054094;28;21008;-78
2022/11/11 10:59:23;;;;;;;1.07;1.00;;;;;;;;;;5040904;28;20433;-76
2022/11/11 11:02:16;;;;;;;0.70;0.70;;;;;;;;;;5045860;28;20412;-79
2022/11/11 11:05:05;;;;;;;0.70;0.67;;;;;;;;;;5069357;28;20424;-78
2022/11/11 11:07:52;;;;;;;0.70;0.70;;;;;;;;;;5058012;28;20441;-80
2022/11/11 11:10:40;;;;;;;0.70;0.70;;;;;;;;;;5067863;28;20425;-77
2022/11/11 11:13:29;;;;;;;0.80;0.80;;;;;;;;;;5064990;28;20470;-80
2022/11/11 11:16:20;;;;;;;0.70;0.70;;;;;;;;;;5043956;28;21621;-79
2022/11/11 11:19:19;;;;;;;0.70;0.70;;;;;;;;;;5050495;28;20558;-79
2022/11/11 11:22:04;;;;;;;0.90;0.90;;;;;;;;;;5054836;28;20469;-79
2022/11/11 11:25:07;;;;;;;0.80;0.80;;;;;;;;;;5052647;28;20413;-79
2022/11/11 11:28:03;;;;;;;0.80;0.80;;;;;;;;;;5049260;28;20426;-77
2022/11/11 11:30:57;;;;;;;0.90;0.90;;;;;;;;;;5054516;28;20501;-78
2022/11/11 11:33:50;;;;;;;0.70;0.60;;;;;;;;;;5053491;28;20819;-78
2022/11/11 11:36:36;;;;;;;0.70;0.70;;;;;;;;;;5040701;28;20795;-76
2022/11/11 11:39:30;;;;;;;0.70;0.70;;;;;;;;;;5061120;28;20775;-79
2022/11/11 11:42:28;;;;;;;0.70;0.70;;;;;;;;;;5049143;28;20521;-79
2022/11/11 11:45:15;;;;;;;0.70;0.70;;;;;;;;;;5053480;28;20546;-79
2022/11/11 11:48:08;;;;;;;0.70;0.70;;;;;;;;;;5053339;28;20443;-79
2022/11/11 11:51:20;;;;;;;0.70;0.70;;;;;;;;;;5067925;28;20473;-80
2022/11/11 11:54:26;;;;;;;0.70;0.70;;;;;;;;;;5066457;28;20832;-80
2022/11/11 11:57:18;;;;;;;0.80;0.70;;;;;;;;;;5043152;28;20440;-79
2022/11/11 12:00:12;;;;;;;0.80;0.80;;;;;;;;;;5062908;28;20410;-79
2022/11/11 12:03:07;;;;;;;0.70;0.70;;;;;;;;;;5061524;28;20506;-80
2022/11/11 12:05:57;;;;;;;0.70;0.70;;;;;;;;;;5064565;28;20435;-79
2022/11/11 12:08:48;;;;;;;0.70;0.70;;;;;;;;;;5063278;28;20426;-78
2022/11/11 12:11:38;;;;;;;0.70;0.70;;;;;;;;;;5046073;28;20432;-79
2022/11/11 12:14:31;;;;;;;0.70;0.60;;;;;;;;;;5062060;28;20488;-80
2022/11/11 12:17:23;;;;;;;0.80;0.80;;;;;;;;;;5054966;28;20429;-78
2022/11/11 12:20:15;;;;;;;0.70;0.70;;;;;;;;;;5053282;28;20424;-81
2022/11/11 12:23:12;;;;;;;0.70;0.70;;;;;;;;;;5070463;28;20444;-79
2022/11/11 12:26:02;;;;;;;0.80;0.70;;;;;;;;;;5049967;28;20423;-80
2022/11/11 12:28:54;;;;;;;0.70;0.70;;;;;;;;;;5054650;28;20424;-77
2022/11/11 12:31:46;;;;;;;0.70;0.70;;;;;;;;;;5045849;28;20470;-79
2022/11/11 12:34:57;;;;;;;0.70;0.70;;;;;;;;;;5056744;28;20985;-78
2022/11/11 12:37:48;;;;;;;0.70;0.70;;;;;;;;;;5050417;28;20585;-78
2022/11/11 12:40:37;;;;;;;0.80;0.70;;;;;;;;;;5064167;28;20413;-77
2022/11/11 12:43:24;;;;;;;0.80;0.80;;;;;;;;;;5063284;28;20887;-80
2022/11/11 12:46:14;;;;;;;0.70;0.70;;;;;;;;;;5057228;28;20422;-80
2022/11/11 12:49:04;;;;;;;1.03;1.03;;;;;;;;;;5057123;28;20426;-81
2022/11/11 12:51:55;;;;;;;0.70;0.70;;;;;;;;;;5049980;28;20438;-81
2022/11/11 12:54:47;;;;;;;1.83;1.73;;;;;;;;;;5062876;28;20858;-80
2022/11/11 12:57:35;;;;;;;0.90;0.90;;;;;;;;;;5076766;28;20422;-79
2022/11/11 13:00:21;;;;;;;0.70;0.70;;;;;;;;;;5055232;28;20518;-79
2022/11/11 13:03:23;;;;;;;0.70;0.70;;;;;;;;;;5066152;28;20438;-80
2022/11/11 13:06:16;;;;;;;0.70;0.70;;;;;;;;;;5059058;28;20442;-79
2022/11/11 13:09:22;;;;;;;0.80;0.80;;;;;;;;;;5051680;28;20434;-79
2022/11/11 13:12:11;;;;;;;0.80;0.80;;;;;;;;;;5061584;28;20518;-79
2022/11/11 13:15:04;;;;;;;0.97;0.97;;;;;;;;;;5048958;28;20467;-80
2022/11/11 13:17:50;;;;;;;0.70;0.70;;;;;;;;;;5070456;28;20989;-80
2022/11/11 13:20:42;;;;;;;0.70;0.70;;;;;;;;;;5062987;28;20814;-78
2022/11/11 13:23:28;;;;;;;0.77;0.77;;;;;;;;;;5065886;28;20431;-78
2022/11/11 13:26:22;;;;;;;0.70;0.70;;;;;;;;;;5064197;28;20416;-81
2022/11/11 13:29:20;;;;;;;0.70;0.70;;;;;;;;;;5055890;28;21286;-81
2022/11/11 13:32:08;;;;;;;0.80;0.80;;;;;;;;;;5073999;28;20436;-80
2022/11/11 13:34:55;;;;;;;0.70;0.70;;;;;;;;;;5065460;28;20412;-79
2022/11/11 13:37:43;;;;;;;0.70;0.70;;;;;;;;;;5054633;28;20439;-80
2022/11/11 13:40:34;;;;;;;0.70;0.60;;;;;;;;;;5057089;28;20885;-81
2022/11/11 13:43:23;;;;;;;0.70;0.70;;;;;;;;;;5062865;28;20448;-81
2022/11/11 13:46:27;;;;;;;0.70;0.70;;;;;;;;;;5067272;28;20515;-80
2022/11/11 13:49:20;;;;;;;1.00;0.90;;;;;;;;;;5052939;28;20421;-80
2022/11/11 13:52:19;;;;;;;0.70;0.70;;;;;;;;;;5056205;28;20439;-81
2022/11/11 13:55:22;;;;;;;0.70;0.60;;;;;;;;;;5069628;28;20554;-79
2022/11/11 13:58:17;;;;;;;0.80;0.70;;;;;;;;;;5056645;28;20919;-80
2022/11/11 14:01:07;;;;;;;0.70;0.70;;;;;;;;;;5058393;28;20528;-80
2022/11/11 14:04:01;;;;;;;0.70;0.60;;;;;;;;;;5058007;28;20435;-80
2022/11/11 14:06:51;;;;;;;0.80;0.77;;;;;;;;;;5072025;28;20866;-80
2022/11/11 14:09:53;;;;;;;0.70;0.70;;;;;;;;;;5065293;28;20426;-81
2022/11/11 14:12:42;;;;;;;0.70;0.70;;;;;;;;;;5064504;28;20458;-80
2022/11/11 14:15:33;;;;;;;0.70;0.70;;;;;;;;;;5058458;28;20461;-81
2022/11/11 14:18:43;;;;;;;0.70;0.60;;;;;;;;;;5056171;28;20439;-79
2022/11/11 14:21:49;;;;;;;0.70;0.60;;;;;;;;;;5047752;28;20474;-80
2022/11/11 14:24:42;;;;;;;1.20;1.10;;;;;;;;;;5062901;28;20440;-80
2022/11/11 14:27:29;;;;;;;0.70;0.60;;;;;;;;;;5064197;28;20421;-81
2022/11/11 14:30:33;;;;;;;0.80;0.73;;;;;;;;;;5055885;28;20459;-79
2022/11/11 14:33:23;;;;;;;0.70;0.70;;;;;;;;;;5067501;28;20455;-79
2022/11/11 14:36:16;;;;;;;0.80;0.80;;;;;;;;;;5055685;28;20822;-80
2022/11/11 14:39:07;;;;;;;0.90;0.90;;;;;;;;;;5052222;28;20434;-79
2022/11/11 14:41:54;;;;;;;0.80;0.80;;;;;;;;;;5071436;28;20423;-80
2022/11/11 14:44:40;;;;;;;0.70;0.60;;;;;;;;;;5059951;28;20426;-80
2022/11/11 14:47:33;;;;;;;0.80;0.80;;;;;;;;;;5061683;28;20432;-79
2022/11/11 14:50:37;;;;;;;0.70;0.70;;;;;;;;;;5062321;28;20454;-80
2022/11/11 14:53:24;;;;;;;0.70;0.70;;;;;;;;;;5065954;28;21034;-80
2022/11/11 14:56:14;;;;;;;0.80;0.73;;;;;;;;;;5048011;28;20947;-79
2022/11/11 14:59:08;;;;;;;0.77;0.77;;;;;;;;;;5069482;28;20580;-79
2022/11/11 15:01:54;;;;;;;0.70;0.70;;;;;;;;;;5057929;28;20485;-80
2022/11/11 15:04:39;;;;;;;0.70;0.70;;;;;;;;;;5062993;28;20414;-80
2022/11/11 15:07:27;;;;;;;0.80;0.80;;;;;;;;;;5069175;28;20961;-80
2022/11/11 15:10:18;;;;;;;0.73;0.73;;;;;;;;;;5069772;28;20935;-80
2022/11/11 15:13:31;;;;;;;0.80;0.80;;;;;;;;;;5058600;28;20439;-77
2022/11/11 15:16:24;;;;;;;0.77;0.77;;;;;;;;;;5058517;28;20488;-80
2022/11/11 15:19:19;;;;;;;0.70;0.70;;;;;;;;;;5047175;28;20962;-80
2022/11/11 15:22:08;;;;;;;0.70;0.70;;;;;;;;;;5063165;28;20972;-80
2022/11/11 15:24:57;;;;;;;0.70;0.70;;;;;;;;;;5057474;28;20449;-77
2022/11/11 15:27:48;;;;;;;0.70;0.70;;;;;;;;;;5043546;28;20428;-80
2022/11/11 15:30:42;;;;;;;0.70;0.60;;;;;;;;;;5050570;28;20458;-77
2022/11/11 15:33:40;;;;;;;0.80;0.80;;;;;;;;;;5056855;28;20425;-80
2022/11/11 15:36:33;;;;;;;0.80;0.80;;;;;;;;;;5052513;28;20474;-79
2022/11/11 15:39:20;;;;;;;0.80;0.70;;;;;;;;;;5045861;28;20458;-80
2022/11/11 15:42:11;;;;;;;0.80;0.80;;;;;;;;;;5066716;28;20583;-80
2022/11/11 15:44:58;;;;;;;0.70;0.70;;;;;;;;;;5040546;28;20434;-80
2022/11/11 15:47:44;;;;;;;0.80;0.80;;;;;;;;;;5053031;28;20502;-80
2022/11/11 15:50:35;;;;;;;0.80;0.80;;;;;;;;;;5061773;28;20457;-77
2022/11/11 15:53:22;;;;;;;0.70;0.63;;;;;;;;;;5062902;28;20445;-78
2022/11/11 15:56:08;;;;;;;0.70;0.70;;;;;;;;;;5054564;28;20616;-77
2022/11/11 15:58:54;;;;;;;0.70;0.70;;;;;;;;;;5053495;28;20417;-77
2022/11/11 16:01:39;;;;;;;0.80;0.77;;;;;;;;;;5056070;28;20420;-78
2022/11/11 16:04:25;;;;;;;0.70;0.70;;;;;;;;;;5062463;28;20529;-80
2022/11/11 16:07:35;;;;;;;0.80;0.70;;;;;;;;;;5059453;28;20426;-80
2022/11/11 16:10:24;;;;;;;1.20;1.10;;;;;;;;;;5062729;28;20430;-80
2022/11/11 16:13:12;;;;;;;0.80;0.80;;;;;;;;;;5055133;28;20783;-81
2022/11/11 16:16:02;;;;;;;0.70;0.60;;;;;;;;;;5042862;28;20487;-80
2022/11/11 16:18:51;;;;;;;1.67;1.57;;;;;;;;;;5044251;28;20426;-80
2022/11/11 16:21:38;;;;;;;0.70;0.70;;;;;;;;;;5045932;28;20905;-78
2022/11/11 16:24:30;;;;;;;0.70;0.70;;;;;;;;;;5065913;28;20648;-80
2022/11/11 16:27:17;;;;;;;0.90;0.80;;;;;;;;;;5065795;28;20471;-79
2022/11/11 16:30:17;;;;;;;2.27;2.10;;;;;;;;;;5062575;28;20782;-80
2022/11/11 16:33:04;;;;;;;0.93;0.83;;;;;;;;;;5047091;28;20417;-79
2022/11/11 16:35:49;;;;;;;0.80;0.80;;;;;;;;;;5063559;28;20445;-79
2022/11/11 16:38:35;;;;;;;0.80;0.80;;;;;;;;;;5071636;28;20501;-80
2022/11/11 16:41:30;;;;;;;0.80;0.80;;;;;;;;;;5057643;28;20424;-79
2022/11/11 16:44:28;;;;;;;0.70;0.67;;;;;;;;;;5043045;28;20435;-81
2022/11/11 16:47:40;;;;;;;0.90;0.90;;;;;;;;;;5042419;28;20425;-80
2022/11/11 16:50:27;;;;;;;0.70;0.60;;;;;;;;;;5055186;28;20468;-82
2022/11/11 16:53:23;;;;;;;1.90;1.80;;;;;;;;;;5056322;28;20424;-81
2022/11/11 16:56:17;;;;;;;1.10;0.90;;;;;;;;;;5058499;28;20474;-81
2022/11/11 16:59:07;;;;;;;0.70;0.70;;;;;;;;;;5060278;28;20494;-77
2022/11/11 17:01:52;;;;;;;0.70;0.70;;;;;;;;;;5071514;28;20430;-80
2022/11/11 17:04:48;;;;;;;0.70;0.60;;;;;;;;;;5057345;28;20539;-80
2022/11/11 17:07:36;;;;;;;0.70;0.70;;;;;;;;;;5041375;28;20422;-80
2022/11/11 17:10:22;;;;;;;0.80;0.80;;;;;;;;;;5049719;28;20437;-78
2022/11/11 17:13:08;;;;;;;0.70;0.67;;;;;;;;;;5054523;28;21076;-80
2022/11/11 17:15:57;;;;;;;0.80;0.80;;;;;;;;;;5070714;28;20427;-81
2022/11/11 17:18:42;;;;;;;0.80;0.80;;;;;;;;;;5050031;28;20526;-80
2022/11/11 17:21:28;;;;;;;0.80;0.80;;;;;;;;;;5068722;28;21137;-80
2022/11/11 17:24:14;;;;;;;0.70;0.70;;;;;;;;;;5069377;28;20785;-78
2022/11/11 17:27:00;;;;;;;0.80;0.80;;;;;;;;;;5065860;28;20949;-79
2022/11/11 17:29:47;;;;;;;0.70;0.60;;;;;;;;;;5054266;28;20548;-79
2022/11/11 17:32:33;;;;;;;0.73;0.73;;;;;;;;;;5054718;28;20440;-80
2022/11/11 17:35:18;;;;;;;0.70;0.70;;;;;;;;;;5046318;28;21047;-78
2022/11/11 17:38:05;;;;;;;2.30;1.97;;;;;;;;;;5048505;28;20458;-79
2022/11/11 17:40:50;;;;;;;2.30;2.10;;;;;;;;;;5068335;28;20760;-80
2022/11/11 17:43:36;;;;;;;0.70;0.70;;;;;;;;;;5061486;28;20817;-78
2022/11/11 17:46:22;;;;;;;2.53;1.40;;;;;;;;;;5058707;28;20457;-81
2022/11/11 17:49:10;;;;;;;0.70;0.67;;;;;;;;;;5057126;28;20421;-79
2022/11/11 17:52:01;;;;;;;0.70;0.70;;;;;;;;;;5061096;28;21318;-79
2022/11/11 17:54:46;;;;;;;0.70;0.70;;;;;;;;;;5053018;28;20613;-80
2022/11/11 17:57:32;;;;;;;3.73;1.80;;;;;;;;;;5068464;28;20456;-80
2022/11/11 18:00:17;;;;;;;0.77;0.77;;;;;;;;;;5058042;28;20429;-81
2022/11/11 18:03:02;;;;;;;0.80;0.80;;;;;;;;;;5054256;28;20445;-80
2022/11/11 18:05:53;;;;;;;0.70;0.67;;;;;;;;;;5060081;28;20445;-79
2022/11/11 18:08:39;;;;;;;0.70;0.60;;;;;;;;;;5049393;28;21433;-82
2022/11/11 18:11:25;;;;;;;1.43;1.17;;;;;;;;;;5056755;28;20417;-81
2022/11/11 18:14:10;;;;;;;1.13;1.03;;;;;;;;;;5070222;28;20897;-81
2022/11/11 18:17:02;;;;;;;5.90;3.17;;;;;;;;;;5058892;28;20911;-79